Time;durP1;ratioP1;P1;durP2;ratioP2;P2;SDS_P1;SDS_P2;PMS_P1;PMS_P2;Temp;Humidity;BMP_temperature;BMP_pressure;BME280_temperature;BME280_humidity;BME280_pressure;Samples;Min_cycle;Max_cycle;Signal;HPM_P1;HPM_P2
2022/07/20 00:01:13;;;;;;;8.15;3.13;;;;;;;;;;5005328;28;20453;-80
2022/07/20 00:03:40;;;;;;;9.93;3.50;;;;;;;;;;4972133;28;20041;-79
2022/07/20 00:06:05;;;;;;;7.85;3.53;;;;;;;;;;5006845;28;20022;-78
2022/07/20 00:11:21;;;;;;;9.82;3.30;;;;;;;;;;5005063;28;20030;-79
2022/07/20 00:13:55;;;;;;;6.35;3.45;;;;;;;;;;5003636;28;20041;-79
2022/07/20 00:16:21;;;;;;;11.35;3.70;;;;;;;;;;5002724;28;20069;-79
2022/07/20 00:18:47;;;;;;;6.63;3.80;;;;;;;;;;4987579;28;21502;-78
2022/07/20 00:21:12;;;;;;;5.15;3.00;;;;;;;;;;5024004;28;20054;-78
2022/07/20 00:23:37;;;;;;;7.05;2.97;;;;;;;;;;4997008;28;20470;-79
2022/07/20 00:26:03;;;;;;;10.18;3.80;;;;;;;;;;4974757;28;20037;-78
2022/07/20 00:28:28;;;;;;;7.10;3.45;;;;;;;;;;4990707;28;20396;-79
2022/07/20 00:30:56;;;;;;;9.73;3.67;;;;;;;;;;4974419;28;20081;-79
2022/07/20 00:33:22;;;;;;;5.65;3.38;;;;;;;;;;4975721;28;20025;-79
2022/07/20 00:35:47;;;;;;;6.22;3.38;;;;;;;;;;4958001;28;20088;-78
2022/07/20 00:38:14;;;;;;;5.65;3.38;;;;;;;;;;4990361;28;20200;-78
2022/07/20 00:40:39;;;;;;;8.75;4.13;;;;;;;;;;4975375;28;20033;-79
2022/07/20 00:43:05;;;;;;;10.65;4.18;;;;;;;;;;4984045;28;20121;-78
2022/07/20 00:45:30;;;;;;;7.63;3.38;;;;;;;;;;4992627;28;20102;-79
2022/07/20 00:47:55;;;;;;;6.35;3.58;;;;;;;;;;5021507;28;20050;-79
2022/07/20 00:50:21;;;;;;;10.10;4.05;;;;;;;;;;4991219;28;20049;-79
2022/07/20 00:52:46;;;;;;;8.45;3.67;;;;;;;;;;5019329;28;20145;-79
2022/07/20 00:55:12;;;;;;;6.85;3.15;;;;;;;;;;4973941;28;20100;-78
2022/07/20 00:57:37;;;;;;;6.72;3.67;;;;;;;;;;4986992;28;20050;-78
2022/07/20 01:00:04;;;;;;;7.65;4.20;;;;;;;;;;5007289;28;20026;-78
2022/07/20 01:02:29;;;;;;;7.35;3.70;;;;;;;;;;4989469;28;20037;-79
2022/07/20 01:04:54;;;;;;;5.93;3.53;;;;;;;;;;5006635;28;20029;-79
2022/07/20 01:07:20;;;;;;;5.88;3.70;;;;;;;;;;4990928;28;20037;-79
2022/07/20 01:09:45;;;;;;;7.63;4.20;;;;;;;;;;5006198;28;20034;-78
2022/07/20 01:12:11;;;;;;;6.35;3.50;;;;;;;;;;5007819;28;20058;-78
2022/07/20 01:14:36;;;;;;;5.55;3.30;;;;;;;;;;5010044;28;20478;-79
2022/07/20 01:17:01;;;;;;;11.75;3.90;;;;;;;;;;5023941;28;20513;-80
2022/07/20 01:19:27;;;;;;;6.78;3.58;;;;;;;;;;4990207;28;20026;-79
2022/07/20 01:21:52;;;;;;;7.97;3.97;;;;;;;;;;4957154;28;20834;-78
2022/07/20 01:24:18;;;;;;;5.90;3.55;;;;;;;;;;4991265;28;20514;-77
2022/07/20 01:26:44;;;;;;;11.25;3.80;;;;;;;;;;4978238;28;20030;-79
2022/07/20 01:29:09;;;;;;;10.07;4.07;;;;;;;;;;4983699;28;20064;-78
2022/07/20 01:31:35;;;;;;;8.07;4.10;;;;;;;;;;5003740;28;20037;-78
2022/07/20 01:34:00;;;;;;;6.00;4.20;;;;;;;;;;4996848;28;20072;-79
2022/07/20 01:36:25;;;;;;;7.55;3.67;;;;;;;;;;4955888;28;20038;-78
2022/07/20 01:38:52;;;;;;;7.07;3.83;;;;;;;;;;4989062;28;20116;-78
2022/07/20 01:41:17;;;;;;;8.80;4.10;;;;;;;;;;5004848;28;20081;-78
2022/07/20 01:43:42;;;;;;;11.00;4.18;;;;;;;;;;4963423;28;20051;-79
2022/07/20 01:46:08;;;;;;;5.78;3.88;;;;;;;;;;5009240;28;20066;-79
2022/07/20 01:48:33;;;;;;;7.65;3.75;;;;;;;;;;5023331;28;20046;-78
2022/07/20 01:50:58;;;;;;;10.30;4.07;;;;;;;;;;5007725;28;20030;-79
2022/07/20 01:53:24;;;;;;;10.95;4.30;;;;;;;;;;5023109;28;20088;-77
2022/07/20 01:55:51;;;;;;;14.15;4.53;;;;;;;;;;4998522;28;20460;-78
2022/07/20 01:58:16;;;;;;;7.03;3.50;;;;;;;;;;5022556;28;20037;-79
2022/07/20 02:00:41;;;;;;;9.95;4.20;;;;;;;;;;4972081;28;20745;-78
2022/07/20 02:03:07;;;;;;;9.68;3.90;;;;;;;;;;5005826;28;20084;-79
2022/07/20 02:05:32;;;;;;;8.45;4.05;;;;;;;;;;4997554;28;20080;-79
2022/07/20 02:07:58;;;;;;;7.00;3.55;;;;;;;;;;4973178;28;20057;-78
2022/07/20 02:10:26;;;;;;;12.68;3.88;;;;;;;;;;4988318;28;20152;-79
2022/07/20 02:12:51;;;;;;;10.02;4.03;;;;;;;;;;5007123;28;20533;-79
2022/07/20 02:18:09;;;;;;;10.68;3.47;;;;;;;;;;5020585;28;20472;-79
2022/07/20 02:20:34;;;;;;;;;;;;;;;;;;5023697;28;20037;-79
2022/07/20 02:23:01;;;;;;;7.60;3.88;;;;;;;;;;4999968;28;19916;-79
2022/07/20 02:25:26;;;;;;;10.13;4.28;;;;;;;;;;5021187;28;20026;-78
2022/07/20 02:27:51;;;;;;;12.80;4.00;;;;;;;;;;4975762;28;20032;-78
2022/07/20 02:30:17;;;;;;;9.80;3.95;;;;;;;;;;4972008;28;20033;-78
2022/07/20 02:32:42;;;;;;;7.72;4.32;;;;;;;;;;5005562;28;20466;-78
2022/07/20 02:35:08;;;;;;;9.88;3.90;;;;;;;;;;5019628;28;20204;-78
2022/07/20 02:37:33;;;;;;;13.82;4.40;;;;;;;;;;5001731;28;20053;-78
2022/07/20 02:39:58;;;;;;;14.20;4.50;;;;;;;;;;5020325;28;20038;-78
2022/07/20 02:42:24;;;;;;;9.40;4.07;;;;;;;;;;5001108;28;20026;-77
2022/07/20 02:44:49;;;;;;;6.95;4.32;;;;;;;;;;5020695;28;20072;-78
2022/07/20 02:47:15;;;;;;;9.00;4.43;;;;;;;;;;5000976;28;20021;-78
2022/07/20 02:49:40;;;;;;;6.28;4.07;;;;;;;;;;4986604;28;20041;-79
2022/07/20 02:52:06;;;;;;;8.55;4.47;;;;;;;;;;4988232;28;20058;-79
2022/07/20 02:54:31;;;;;;;14.55;4.53;;;;;;;;;;4989329;28;20548;-79
2022/07/20 02:56:56;;;;;;;9.90;4.38;;;;;;;;;;4988537;28;20874;-79
2022/07/20 02:59:22;;;;;;;9.60;4.13;;;;;;;;;;4987285;28;20061;-78
2022/07/20 03:01:47;;;;;;;14.68;4.60;;;;;;;;;;4988360;28;20088;-77
2022/07/20 03:04:12;;;;;;;11.20;3.75;;;;;;;;;;4986072;28;20124;-79
2022/07/20 03:06:38;;;;;;;5.78;3.90;;;;;;;;;;5004197;28;20117;-78
2022/07/20 03:09:03;;;;;;;7.95;4.68;;;;;;;;;;5004168;28;20041;-78
2022/07/20 03:11:28;;;;;;;7.40;4.15;;;;;;;;;;4988892;28;20108;-77
2022/07/20 03:13:54;;;;;;;7.43;3.75;;;;;;;;;;5003652;28;20072;-77
2022/07/20 03:16:19;;;;;;;9.75;4.45;;;;;;;;;;4986110;28;20088;-79
2022/07/20 03:18:45;;;;;;;10.55;4.57;;;;;;;;;;5020965;28;20069;-78
2022/07/20 03:21:10;;;;;;;6.95;3.80;;;;;;;;;;5003237;28;20026;-78
2022/07/20 03:23:35;;;;;;;9.63;4.05;;;;;;;;;;5003897;28;20036;-79
2022/07/20 03:26:01;;;;;;;7.68;4.10;;;;;;;;;;4987543;28;20088;-79
2022/07/20 03:28:26;;;;;;;8.50;4.68;;;;;;;;;;5005307;28;20116;-80
2022/07/20 03:30:51;;;;;;;5.97;4.57;;;;;;;;;;5023363;28;20021;-79
2022/07/20 03:33:17;;;;;;;7.35;4.38;;;;;;;;;;5020897;28;20125;-79
2022/07/20 03:35:42;;;;;;;9.48;4.40;;;;;;;;;;5018870;28;20044;-79
2022/07/20 03:38:08;;;;;;;6.32;4.88;;;;;;;;;;4971104;28;20511;-79
2022/07/20 03:40:33;;;;;;;6.32;4.20;;;;;;;;;;4986366;28;20498;-79
2022/07/20 03:42:58;;;;;;;11.05;4.43;;;;;;;;;;4981171;28;20034;-79
2022/07/20 03:45:24;;;;;;;7.72;4.13;;;;;;;;;;5005386;28;20034;-79
2022/07/20 03:47:49;;;;;;;15.77;4.93;;;;;;;;;;4986869;28;20069;-78
2022/07/20 03:50:15;;;;;;;8.23;4.05;;;;;;;;;;4978924;28;20033;-78
2022/07/20 03:52:40;;;;;;;7.93;4.75;;;;;;;;;;4984073;28;20398;-79
2022/07/20 03:55:06;;;;;;;11.80;4.30;;;;;;;;;;5004746;28;20053;-78
2022/07/20 03:57:31;;;;;;;10.27;4.18;;;;;;;;;;5021794;28;20097;-78
2022/07/20 03:59:56;;;;;;;8.45;4.30;;;;;;;;;;5008706;28;20069;-79
2022/07/20 04:02:22;;;;;;;10.43;5.15;;;;;;;;;;5005470;28;20022;-73
2022/07/20 04:04:47;;;;;;;7.38;4.63;;;;;;;;;;5005274;28;20058;-73
2022/07/20 04:07:13;;;;;;;8.95;5.45;;;;;;;;;;5006007;28;20046;-74
2022/07/20 04:09:44;;;;;;;7.70;4.55;;;;;;;;;;4996582;28;20120;-73
2022/07/20 04:12:10;;;;;;;10.82;4.80;;;;;;;;;;4989439;28;20033;-72
2022/07/20 04:14:36;;;;;;;10.02;4.68;;;;;;;;;;5005610;28;20164;-74
2022/07/20 04:17:01;;;;;;;9.10;4.10;;;;;;;;;;5004577;28;20045;-74
2022/07/20 04:19:26;;;;;;;17.25;4.90;;;;;;;;;;5005862;28;20038;-74
2022/07/20 04:21:55;;;;;;;6.85;4.57;;;;;;;;;;5002633;28;20631;-75
2022/07/20 04:24:21;;;;;;;10.00;4.95;;;;;;;;;;5003802;28;20100;-74
2022/07/20 04:26:47;;;;;;;12.07;4.47;;;;;;;;;;5004308;28;20037;-74
2022/07/20 04:29:12;;;;;;;9.10;4.80;;;;;;;;;;4991019;28;20117;-79
2022/07/20 04:31:37;;;;;;;12.93;4.82;;;;;;;;;;4989316;28;20026;-79
2022/07/20 04:34:03;;;;;;;8.32;4.10;;;;;;;;;;5008338;28;20392;-79
2022/07/20 04:36:28;;;;;;;7.00;4.60;;;;;;;;;;5009902;28;20057;-78
2022/07/20 04:38:57;;;;;;;12.55;5.22;;;;;;;;;;5009194;28;20113;-78
2022/07/20 04:41:22;;;;;;;6.95;4.25;;;;;;;;;;5011515;28;20038;-79
2022/07/20 04:43:48;;;;;;;9.02;5.32;;;;;;;;;;5028059;28;20030;-78
2022/07/20 04:46:13;;;;;;;6.10;3.97;;;;;;;;;;5009313;28;20066;-78
2022/07/20 04:48:38;;;;;;;7.40;4.45;;;;;;;;;;5010888;28;20056;-79
2022/07/20 04:51:04;;;;;;;11.15;4.15;;;;;;;;;;5026547;28;20117;-78
2022/07/20 04:53:29;;;;;;;10.13;4.30;;;;;;;;;;5004122;28;20093;-78
2022/07/20 04:55:55;;;;;;;6.88;4.25;;;;;;;;;;5019370;28;20034;-77
2022/07/20 04:58:20;;;;;;;13.82;5.70;;;;;;;;;;5010388;28;20116;-80
2022/07/20 05:00:45;;;;;;;10.35;5.20;;;;;;;;;;4980960;28;20052;-79
2022/07/20 05:03:11;;;;;;;10.68;4.50;;;;;;;;;;5026269;28;20046;-79
2022/07/20 05:05:36;;;;;;;8.93;4.15;;;;;;;;;;5009975;28;20061;-79
2022/07/20 05:08:02;;;;;;;13.55;5.03;;;;;;;;;;5026602;28;20052;-78
2022/07/20 05:10:28;;;;;;;9.65;5.07;;;;;;;;;;5010709;28;20054;-78
2022/07/20 05:12:56;;;;;;;8.07;4.25;;;;;;;;;;5017762;28;20044;-79
2022/07/20 05:15:23;;;;;;;14.45;5.15;;;;;;;;;;4983476;28;20037;-78
2022/07/20 05:17:49;;;;;;;11.68;4.90;;;;;;;;;;5008931;28;20084;-79
2022/07/20 05:20:15;;;;;;;9.27;4.70;;;;;;;;;;5025956;28;20045;-78
2022/07/20 05:22:40;;;;;;;27.48;4.97;;;;;;;;;;4992925;28;20057;-79
2022/07/20 05:25:06;;;;;;;9.20;4.22;;;;;;;;;;5006092;28;20084;-79
2022/07/20 05:27:31;;;;;;;13.55;4.60;;;;;;;;;;5008747;28;20460;-78
2022/07/20 05:29:56;;;;;;;10.70;4.30;;;;;;;;;;5025150;28;20117;-78
2022/07/20 05:32:22;;;;;;;11.40;4.40;;;;;;;;;;5025437;28;20100;-78
2022/07/20 05:34:47;;;;;;;12.57;4.55;;;;;;;;;;5008252;28;20054;-78
2022/07/20 05:37:13;;;;;;;10.23;4.13;;;;;;;;;;5008542;28;20065;-78
2022/07/20 05:39:38;;;;;;;8.52;4.70;;;;;;;;;;5025980;28;20028;-79
2022/07/20 05:42:06;;;;;;;8.70;4.85;;;;;;;;;;5008689;28;20045;-79
2022/07/20 05:44:31;;;;;;;12.25;4.50;;;;;;;;;;5009214;28;20046;-79
2022/07/20 05:46:57;;;;;;;12.77;4.80;;;;;;;;;;5018587;28;20042;-79
2022/07/20 05:49:22;;;;;;;9.38;4.65;;;;;;;;;;5024155;28;20125;-80
2022/07/20 05:51:48;;;;;;;6.85;4.53;;;;;;;;;;5020507;28;20054;-79
2022/07/20 05:54:13;;;;;;;7.95;4.70;;;;;;;;;;4988942;28;20514;-79
2022/07/20 05:56:38;;;;;;;16.35;4.70;;;;;;;;;;5024789;28;20072;-79
2022/07/20 05:59:04;;;;;;;12.60;4.50;;;;;;;;;;5016986;28;20061;-79
2022/07/20 06:01:29;;;;;;;16.17;5.07;;;;;;;;;;5008225;28;20088;-79
2022/07/20 06:03:55;;;;;;;11.98;4.60;;;;;;;;;;5008461;28;20061;-79
2022/07/20 06:06:20;;;;;;;10.82;4.30;;;;;;;;;;5017125;28;20114;-79
2022/07/20 06:08:45;;;;;;;12.55;4.78;;;;;;;;;;5009831;28;20528;-79
2022/07/20 06:11:11;;;;;;;17.60;5.43;;;;;;;;;;5008794;28;20022;-79
2022/07/20 06:13:36;;;;;;;7.85;4.82;;;;;;;;;;4997760;28;20042;-79
2022/07/20 06:16:02;;;;;;;11.32;5.60;;;;;;;;;;5004141;28;20045;-79
2022/07/20 06:18:27;;;;;;;12.55;5.55;;;;;;;;;;4982501;28;22985;-80
2022/07/20 06:20:53;;;;;;;12.73;5.88;;;;;;;;;;5004508;28;20041;-79
2022/07/20 06:23:18;;;;;;;20.83;6.47;;;;;;;;;;5005158;28;20034;-79
2022/07/20 06:25:43;;;;;;;17.13;6.22;;;;;;;;;;5002840;28;20214;-80
2022/07/20 06:28:09;;;;;;;14.68;6.03;;;;;;;;;;5008441;28;20080;-79
2022/07/20 06:30:34;;;;;;;15.68;6.60;;;;;;;;;;4992698;28;20025;-79
2022/07/20 06:33:00;;;;;;;15.73;6.65;;;;;;;;;;5008308;28;20222;-79
2022/07/20 06:35:25;;;;;;;18.08;7.60;;;;;;;;;;5006725;28;20556;-79
2022/07/20 06:37:50;;;;;;;15.90;7.03;;;;;;;;;;5014366;28;20455;-79
2022/07/20 06:40:16;;;;;;;14.13;6.28;;;;;;;;;;4986239;28;20046;-79
2022/07/20 06:42:41;;;;;;;16.42;6.60;;;;;;;;;;5025261;28;20092;-79
2022/07/20 06:45:07;;;;;;;10.93;7.30;;;;;;;;;;5000256;28;20118;-78
2022/07/20 06:47:32;;;;;;;11.82;6.95;;;;;;;;;;5022821;28;20482;-78
2022/07/20 06:49:58;;;;;;;18.38;7.57;;;;;;;;;;5006822;28;20058;-78
2022/07/20 06:52:23;;;;;;;14.30;8.20;;;;;;;;;;5007215;28;20044;-78
2022/07/20 06:54:48;;;;;;;19.42;8.32;;;;;;;;;;5006942;28;20456;-78
2022/07/20 06:57:14;;;;;;;15.95;8.52;;;;;;;;;;4981379;28;20102;-78
2022/07/20 06:59:40;;;;;;;12.82;7.40;;;;;;;;;;5006688;28;20030;-78
2022/07/20 07:02:05;;;;;;;15.68;8.55;;;;;;;;;;5022835;28;20028;-78
2022/07/20 07:04:31;;;;;;;18.88;9.73;;;;;;;;;;4965926;28;20034;-79
2022/07/20 07:06:58;;;;;;;15.77;9.80;;;;;;;;;;5006161;28;20049;-79
2022/07/20 07:09:23;;;;;;;20.67;10.82;;;;;;;;;;5004833;28;20707;-79
2022/07/20 07:11:49;;;;;;;18.65;11.60;;;;;;;;;;5003355;28;20034;-79
2022/07/20 07:14:14;;;;;;;13.80;10.38;;;;;;;;;;5018665;28;20531;-78
2022/07/20 07:16:39;;;;;;;14.50;10.63;;;;;;;;;;5020647;28;20065;-78
2022/07/20 07:19:05;;;;;;;16.10;11.52;;;;;;;;;;5006846;28;20038;-78
2022/07/20 07:21:30;;;;;;;22.45;12.35;;;;;;;;;;5000003;28;20042;-78
2022/07/20 07:23:55;;;;;;;22.35;12.38;;;;;;;;;;4989833;28;20037;-78
2022/07/20 07:26:21;;;;;;;19.50;12.88;;;;;;;;;;5007444;28;20394;-78
2022/07/20 07:28:46;;;;;;;17.63;12.70;;;;;;;;;;4976543;28;20033;-78
2022/07/20 07:31:12;;;;;;;21.30;14.00;;;;;;;;;;5012638;28;20030;-78
2022/07/20 07:33:37;;;;;;;22.02;13.98;;;;;;;;;;4997065;28;20018;-78
2022/07/20 07:36:03;;;;;;;19.27;14.15;;;;;;;;;;4977700;28;20084;-78
2022/07/20 07:38:31;;;;;;;20.52;13.32;;;;;;;;;;4993919;28;20053;-78
2022/07/20 07:40:57;;;;;;;23.95;14.77;;;;;;;;;;5018473;28;20034;-78
2022/07/20 07:43:22;;;;;;;21.65;14.02;;;;;;;;;;5007463;28;20068;-78
2022/07/20 07:45:48;;;;;;;28.25;15.77;;;;;;;;;;5011945;28;20030;-78
2022/07/20 07:48:13;;;;;;;25.08;14.70;;;;;;;;;;5018883;28;20041;-79
2022/07/20 07:50:39;;;;;;;24.85;15.10;;;;;;;;;;5000953;28;20034;-78
2022/07/20 07:53:07;;;;;;;26.48;18.00;;;;;;;;;;4986522;28;20088;-78
2022/07/20 07:55:36;;;;;;;27.50;17.20;;;;;;;;;;5000752;28;20038;-78
2022/07/20 07:58:01;;;;;;;28.15;17.80;;;;;;;;;;4986221;28;20049;-78
2022/07/20 08:00:26;;;;;;;33.85;18.85;;;;;;;;;;5003540;28;20049;-78
2022/07/20 08:02:53;;;;;;;28.30;17.90;;;;;;;;;;4992705;28;20126;-78
2022/07/20 08:05:18;;;;;;;22.75;17.67;;;;;;;;;;4995032;28;20033;-78
2022/07/20 08:07:44;;;;;;;25.50;17.60;;;;;;;;;;5003639;28;20423;-79
2022/07/20 08:10:09;;;;;;;30.98;18.42;;;;;;;;;;4996232;28;20034;-78
2022/07/20 08:12:36;;;;;;;27.02;19.88;;;;;;;;;;4995521;28;20072;-78
2022/07/20 08:15:02;;;;;;;25.63;18.65;;;;;;;;;;5028084;28;20038;-78
2022/07/20 08:17:27;;;;;;;33.78;19.77;;;;;;;;;;5011447;28;20100;-78
2022/07/20 08:19:52;;;;;;;27.42;20.02;;;;;;;;;;5011967;28;20049;-78
2022/07/20 08:22:18;;;;;;;28.23;20.50;;;;;;;;;;5003724;28;20042;-78
2022/07/20 08:24:44;;;;;;;33.85;20.60;;;;;;;;;;5013038;28;20030;-78
2022/07/20 08:27:10;;;;;;;29.75;21.02;;;;;;;;;;5011466;28;20052;-78
2022/07/20 08:29:35;;;;;;;27.50;19.85;;;;;;;;;;5011716;28;20026;-78
2022/07/20 08:32:00;;;;;;;25.30;19.95;;;;;;;;;;4989934;28;20494;-78
2022/07/20 08:34:26;;;;;;;28.77;20.85;;;;;;;;;;5008152;28;20054;-78
2022/07/20 08:36:51;;;;;;;29.77;19.92;;;;;;;;;;5012382;28;20064;-78
2022/07/20 08:39:16;;;;;;;23.48;19.30;;;;;;;;;;5010627;28;20117;-78
2022/07/20 08:41:42;;;;;;;27.50;19.70;;;;;;;;;;4984158;28;20057;-78
2022/07/20 08:44:07;;;;;;;30.05;20.63;;;;;;;;;;5007162;28;20441;-78
2022/07/20 08:46:35;;;;;;;28.23;22.00;;;;;;;;;;4991418;28;20037;-78
2022/07/20 08:49:02;;;;;;;33.55;22.70;;;;;;;;;;5006665;28;20042;-78
2022/07/20 08:51:27;;;;;;;30.05;23.63;;;;;;;;;;4967988;28;20620;-78
2022/07/20 08:53:53;;;;;;;33.85;24.00;;;;;;;;;;4982340;28;20172;-78
2022/07/20 08:56:22;;;;;;;26.52;21.67;;;;;;;;;;4991361;28;20022;-78
2022/07/20 08:58:50;;;;;;;26.52;23.33;;;;;;;;;;5004535;28;20038;-77
2022/07/20 09:01:16;;;;;;;28.33;23.75;;;;;;;;;;4998731;28;20033;-78
2022/07/20 09:03:44;;;;;;;32.03;22.70;;;;;;;;;;5007647;28;20045;-77
2022/07/20 09:06:10;;;;;;;29.13;22.05;;;;;;;;;;4998783;28;20037;-77
2022/07/20 09:08:35;;;;;;;27.45;22.13;;;;;;;;;;5014562;28;20026;-77
2022/07/20 09:11:01;;;;;;;26.40;21.80;;;;;;;;;;4973166;28;20069;-77
2022/07/20 09:13:31;;;;;;;33.28;21.95;;;;;;;;;;5006889;28;20026;-77
2022/07/20 09:15:56;;;;;;;29.65;21.60;;;;;;;;;;4990481;28;20040;-77
2022/07/20 09:18:32;;;;;;;28.95;21.48;;;;;;;;;;5005108;28;20034;-77
2022/07/20 09:21:02;;;;;;;25.40;20.13;;;;;;;;;;5008022;28;20038;-77
2022/07/20 09:23:40;;;;;;;27.30;20.55;;;;;;;;;;4989290;28;20022;-77
2022/07/20 09:26:15;;;;;;;27.95;18.75;;;;;;;;;;5023711;28;20034;-77
2022/07/20 09:28:51;;;;;;;22.60;19.30;;;;;;;;;;5000507;28;20482;-77
2022/07/20 09:31:27;;;;;;;23.77;17.88;;;;;;;;;;5007355;28;20037;-77
2022/07/20 09:33:57;;;;;;;22.08;16.83;;;;;;;;;;5017172;28;20550;-78
2022/07/20 09:36:24;;;;;;;22.23;17.48;;;;;;;;;;4982288;28;20049;-78
2022/07/20 09:38:49;;;;;;;25.10;16.20;;;;;;;;;;4999663;28;20052;-78
2022/07/20 09:41:23;;;;;;;28.45;16.40;;;;;;;;;;4991556;28;20021;-78
2022/07/20 09:43:51;;;;;;;19.60;14.98;;;;;;;;;;4998511;28;20026;-78
2022/07/20 09:46:18;;;;;;;25.60;16.85;;;;;;;;;;5003649;28;20506;-78
2022/07/20 09:48:48;;;;;;;18.73;13.75;;;;;;;;;;5006012;28;20125;-78
2022/07/20 09:51:37;;;;;;;18.25;13.80;;;;;;;;;;4998169;28;20030;-78
2022/07/20 09:54:04;;;;;;;24.98;14.60;;;;;;;;;;5003547;28;20038;-78
2022/07/20 09:56:30;;;;;;;23.63;14.68;;;;;;;;;;5008892;28;20054;-78
2022/07/20 09:58:57;;;;;;;18.60;13.85;;;;;;;;;;5006886;28;20486;-77
2022/07/20 10:01:24;;;;;;;18.27;14.57;;;;;;;;;;5007870;28;20482;-77
2022/07/20 10:03:51;;;;;;;27.33;14.85;;;;;;;;;;5005604;28;20030;-77
2022/07/20 10:06:16;;;;;;;21.52;14.70;;;;;;;;;;4980866;28;20033;-78
2022/07/20 10:08:42;;;;;;;19.55;14.15;;;;;;;;;;4991520;28;20036;-78
2022/07/20 10:11:07;;;;;;;26.10;14.52;;;;;;;;;;5008181;28;20033;-78
2022/07/20 10:13:33;;;;;;;27.50;14.45;;;;;;;;;;4998587;28;20517;-78
2022/07/20 10:16:04;;;;;;;20.20;12.98;;;;;;;;;;5023243;28;20053;-78
2022/07/20 10:18:29;;;;;;;18.17;12.48;;;;;;;;;;4982064;28;20048;-77
2022/07/20 10:20:55;;;;;;;17.85;12.70;;;;;;;;;;4981455;28;20026;-79
2022/07/20 10:23:27;;;;;;;21.23;13.10;;;;;;;;;;4998039;28;20025;-78
2022/07/20 10:25:55;;;;;;;17.58;12.98;;;;;;;;;;4990765;28;20113;-78
2022/07/20 10:28:23;;;;;;;21.25;13.52;;;;;;;;;;5007565;28;20036;-78
2022/07/20 10:30:52;;;;;;;16.60;11.43;;;;;;;;;;5022792;28;20033;-78
2022/07/20 10:33:18;;;;;;;16.55;11.45;;;;;;;;;;5006226;28;20029;-78
2022/07/20 10:35:45;;;;;;;14.95;10.73;;;;;;;;;;5007500;28;20041;-78
2022/07/20 10:38:11;;;;;;;16.65;11.15;;;;;;;;;;4998543;28;20041;-78
2022/07/20 10:41:31;;;;;;;16.30;9.40;;;;;;;;;;5007104;28;20052;-78
2022/07/20 10:43:24;;;;;;;15.10;8.65;;;;;;;;;;5000141;28;20052;-78
2022/07/20 10:45:50;;;;;;;16.95;10.30;;;;;;;;;;5011274;28;20030;-78
2022/07/20 10:48:16;;;;;;;15.18;8.73;;;;;;;;;;5004847;28;20093;-78
2022/07/20 10:50:52;;;;;;;19.17;9.63;;;;;;;;;;5003051;28;20038;-78
2022/07/20 10:53:17;;;;;;;14.60;9.25;;;;;;;;;;5021621;28;20029;-78
2022/07/20 10:55:56;;;;;;;17.35;9.50;;;;;;;;;;4997987;28;20026;-78
2022/07/20 10:58:23;;;;;;;14.95;8.77;;;;;;;;;;4997514;28;20153;-78
2022/07/20 11:00:53;;;;;;;15.82;8.13;;;;;;;;;;5021937;28;20022;-78
2022/07/20 11:03:27;;;;;;;17.40;8.98;;;;;;;;;;5012672;28;20033;-78
2022/07/20 11:06:00;;;;;;;16.95;9.25;;;;;;;;;;5020836;28;20037;-77
2022/07/20 11:08:25;;;;;;;12.50;7.50;;;;;;;;;;5005395;28;20052;-77
2022/07/20 11:10:52;;;;;;;16.08;8.55;;;;;;;;;;5004904;28;20025;-77
2022/07/20 11:13:17;;;;;;;11.93;6.90;;;;;;;;;;5011510;28;20120;-78
2022/07/20 11:15:50;;;;;;;15.68;8.48;;;;;;;;;;4991197;28;20117;-77
2022/07/20 11:18:23;;;;;;;11.48;7.25;;;;;;;;;;4988006;28;20513;-77
2022/07/20 11:20:53;;;;;;;14.35;8.35;;;;;;;;;;4995460;28;20038;-77
2022/07/20 11:23:21;;;;;;;12.43;7.60;;;;;;;;;;4997379;28;20481;-78
2022/07/20 11:25:48;;;;;;;12.48;7.43;;;;;;;;;;4993954;28;20038;-78
2022/07/20 11:28:19;;;;;;;9.20;5.72;;;;;;;;;;5006279;28;20029;-78
2022/07/20 11:30:45;;;;;;;16.13;6.95;;;;;;;;;;4993830;28;20033;-78
2022/07/20 11:33:11;;;;;;;11.55;6.57;;;;;;;;;;5001034;28;20061;-78
2022/07/20 11:35:37;;;;;;;11.75;7.05;;;;;;;;;;5005222;28;20099;-77
2022/07/20 11:38:02;;;;;;;9.27;6.63;;;;;;;;;;4998109;28;20038;-77
2022/07/20 11:40:28;;;;;;;18.52;7.50;;;;;;;;;;4988829;28;20410;-78
2022/07/20 11:43:06;;;;;;;14.50;7.93;;;;;;;;;;5006030;28;20101;-77
2022/07/20 11:45:31;;;;;;;14.98;7.72;;;;;;;;;;5021616;28;20041;-77
2022/07/20 11:47:56;;;;;;;13.40;7.78;;;;;;;;;;5012384;28;20160;-77
2022/07/20 11:50:22;;;;;;;14.02;8.00;;;;;;;;;;4989284;28;20544;-77
2022/07/20 11:52:47;;;;;;;13.18;7.72;;;;;;;;;;5018800;28;20030;-77
2022/07/20 11:55:12;;;;;;;16.98;8.48;;;;;;;;;;5000311;28;20038;-78
2022/07/20 11:57:38;;;;;;;11.05;7.75;;;;;;;;;;5007227;28;20030;-78
2022/07/20 12:00:05;;;;;;;13.38;7.93;;;;;;;;;;5021018;28;20096;-78
2022/07/20 12:02:33;;;;;;;16.55;8.15;;;;;;;;;;5005054;28;20057;-78
2022/07/20 12:04:59;;;;;;;11.85;7.93;;;;;;;;;;5001490;28;20461;-78
2022/07/20 12:10:18;;;;;;;11.18;8.00;;;;;;;;;;5019308;28;20120;-78
2022/07/20 12:12:47;;;;;;;12.88;8.10;;;;;;;;;;5021790;28;20114;-78
2022/07/20 12:15:13;;;;;;;12.30;7.82;;;;;;;;;;5022071;28;20429;-78
2022/07/20 12:17:49;;;;;;;13.90;8.30;;;;;;;;;;5007449;28;20042;-78
2022/07/20 12:20:15;;;;;;;15.60;7.38;;;;;;;;;;5009894;28;20575;-78
2022/07/20 12:22:49;;;;;;;16.42;7.82;;;;;;;;;;5025001;28;20069;-78
2022/07/20 12:25:14;;;;;;;11.77;6.13;;;;;;;;;;4987765;28;20030;-78
2022/07/20 12:27:42;;;;;;;18.00;6.43;;;;;;;;;;4984270;28;20053;-78
2022/07/20 12:30:38;;;;;;;13.65;6.20;;;;;;;;;;4998787;28;20555;-78
2022/07/20 12:33:11;;;;;;;10.35;5.75;;;;;;;;;;4996433;28;20045;-79
2022/07/20 12:35:39;;;;;;;11.05;6.32;;;;;;;;;;5009862;28;20073;-78
2022/07/20 12:38:04;;;;;;;8.48;5.72;;;;;;;;;;5000405;28;20046;-78
2022/07/20 12:40:37;;;;;;;9.20;5.63;;;;;;;;;;5009294;28;20100;-78
2022/07/20 12:43:04;;;;;;;14.35;6.30;;;;;;;;;;5009108;28;20040;-78
2022/07/20 12:45:32;;;;;;;9.50;5.55;;;;;;;;;;5003442;28;20033;-77
2022/07/20 12:47:58;;;;;;;9.95;5.50;;;;;;;;;;5004970;28;20478;-79
2022/07/20 12:50:24;;;;;;;8.98;4.63;;;;;;;;;;5014273;28;20032;-77
2022/07/20 12:52:49;;;;;;;10.60;4.60;;;;;;;;;;5015695;28;20097;-77
2022/07/20 12:55:15;;;;;;;11.57;5.93;;;;;;;;;;4995385;28;20113;-77
2022/07/20 12:57:41;;;;;;;6.15;4.15;;;;;;;;;;5018099;28;20096;-77
2022/07/20 13:00:07;;;;;;;8.85;4.78;;;;;;;;;;5007389;28;20046;-77
2022/07/20 13:02:33;;;;;;;12.90;5.00;;;;;;;;;;5021801;28;20121;-77
2022/07/20 13:04:58;;;;;;;8.18;4.15;;;;;;;;;;5006186;28;20118;-77
2022/07/20 13:07:24;;;;;;;9.00;4.68;;;;;;;;;;5023302;28;20482;-77
2022/07/20 13:09:49;;;;;;;7.25;4.55;;;;;;;;;;5006894;28;20037;-78
2022/07/20 13:12:15;;;;;;;12.45;4.72;;;;;;;;;;5006357;28;20481;-77
2022/07/20 13:14:40;;;;;;;9.57;4.72;;;;;;;;;;4999595;28;20057;-77
2022/07/20 13:17:06;;;;;;;8.60;4.43;;;;;;;;;;4988917;28;20042;-78
2022/07/20 13:19:32;;;;;;;11.60;5.32;;;;;;;;;;5023033;28;20026;-77
2022/07/20 13:21:57;;;;;;;11.23;5.10;;;;;;;;;;5014608;28;20113;-77
2022/07/20 13:24:22;;;;;;;11.95;5.30;;;;;;;;;;5015191;28;20149;-77
2022/07/20 13:26:48;;;;;;;10.30;6.03;;;;;;;;;;5006467;28;20455;-77
2022/07/20 13:29:14;;;;;;;17.40;6.60;;;;;;;;;;4998273;28;20030;-77
2022/07/20 13:31:39;;;;;;;11.75;5.72;;;;;;;;;;5007091;28;20033;-79
2022/07/20 13:34:05;;;;;;;7.90;5.25;;;;;;;;;;4981573;28;20027;-77
2022/07/20 13:36:30;;;;;;;10.32;5.32;;;;;;;;;;4996492;28;20046;-78
2022/07/20 13:38:55;;;;;;;9.55;4.88;;;;;;;;;;5006433;28;20081;-77
2022/07/20 13:41:25;;;;;;;10.85;5.30;;;;;;;;;;4978220;28;20018;-77
2022/07/20 13:43:50;;;;;;;10.43;6.28;;;;;;;;;;4990783;28;20117;-78
2022/07/20 13:46:16;;;;;;;13.27;5.82;;;;;;;;;;5024091;28;20061;-77
2022/07/20 13:48:41;;;;;;;13.02;5.35;;;;;;;;;;5005701;28;20026;-77
2022/07/20 13:51:07;;;;;;;13.95;5.22;;;;;;;;;;5008032;28;20065;-78
2022/07/20 13:53:33;;;;;;;10.48;5.43;;;;;;;;;;4970660;28;20056;-78
2022/07/20 13:55:59;;;;;;;8.00;5.35;;;;;;;;;;5017182;28;20041;-77
2022/07/20 13:58:27;;;;;;;10.88;5.50;;;;;;;;;;5007716;28;20040;-78
2022/07/20 14:00:52;;;;;;;12.32;5.30;;;;;;;;;;5022910;28;20113;-78
2022/07/20 14:03:18;;;;;;;10.02;4.97;;;;;;;;;;5008196;28;20492;-78
2022/07/20 14:05:43;;;;;;;11.77;5.70;;;;;;;;;;5006472;28;20094;-78
2022/07/20 14:08:10;;;;;;;11.15;5.85;;;;;;;;;;4998076;28;20320;-77
2022/07/20 14:10:35;;;;;;;12.13;6.43;;;;;;;;;;5022251;28;20037;-77
2022/07/20 14:13:01;;;;;;;11.02;6.03;;;;;;;;;;4987493;28;20072;-77
2022/07/20 14:15:26;;;;;;;18.70;6.20;;;;;;;;;;4989804;28;20121;-78
2022/07/20 14:17:52;;;;;;;11.52;6.03;;;;;;;;;;5007052;28;20433;-77
2022/07/20 14:20:17;;;;;;;16.92;5.47;;;;;;;;;;5004692;28;20024;-77
2022/07/20 14:22:42;;;;;;;13.30;5.90;;;;;;;;;;5021563;28;20061;-77
2022/07/20 14:25:08;;;;;;;11.23;5.70;;;;;;;;;;5020833;28;20030;-77
2022/07/20 14:27:36;;;;;;;12.63;6.15;;;;;;;;;;5021298;28;20038;-77
2022/07/20 14:30:02;;;;;;;12.60;5.60;;;;;;;;;;5005901;28;20034;-77
2022/07/20 14:32:28;;;;;;;16.13;6.28;;;;;;;;;;5013093;28;20030;-77
2022/07/20 14:34:53;;;;;;;11.10;6.07;;;;;;;;;;5015302;28;20041;-78